Time;durP1;ratioP1;P1;durP2;ratioP2;P2;SDS_P1;SDS_P2;PMS_P1;PMS_P2;Temp;Humidity;BMP_temperature;BMP_pressure;BME280_temperature;BME280_humidity;BME280_pressure;Samples;Min_cycle;Max_cycle;Signal;HPM_P1;HPM_P2
2021/03/30 00:02:22;;;;;;;;;58.00;44.00;;;;;9.20;70.94;101147.28;5016213;28;8863;-61
2021/03/30 00:04:49;;;;;;;;;57.67;44.33;;;;;9.09;70.16;101149.44;5018745;28;8833;-61
2021/03/30 00:07:16;;;;;;;;;58.00;44.33;;;;;9.38;67.57;101156.53;5030349;28;8941;-61
2021/03/30 00:09:42;;;;;;;;;57.00;44.00;;;;;9.30;70.33;101151.41;5020796;28;8840;-61
2021/03/30 00:12:10;;;;;;;;;51.00;42.33;;;;;9.22;69.96;101142.75;5022645;28;10641;-61
2021/03/30 00:14:37;;;;;;;;;44.67;38.00;;;;;9.15;69.71;101143.88;5020791;28;8868;-61
2021/03/30 00:17:04;;;;;;;;;39.33;33.33;;;;;9.59;66.27;101145.09;5015047;28;8835;-62
2021/03/30 00:19:31;;;;;;;;;34.33;31.00;;;;;9.35;67.07;101138.75;5020087;28;8846;-61
2021/03/30 00:21:58;;;;;;;;;37.33;30.33;;;;;9.58;66.73;101139.75;5013811;28;8881;-61
2021/03/30 00:24:24;;;;;;;;;35.00;32.67;;;;;9.69;66.31;101134.94;5014918;28;8954;-61
2021/03/30 00:26:51;;;;;;;;;33.33;29.00;;;;;9.44;67.30;101133.06;5027887;28;8829;-61
2021/03/30 00:29:18;;;;;;;;;37.00;33.00;;;;;9.52;66.96;101130.13;5029286;28;8887;-61
2021/03/30 00:31:46;;;;;;;;;42.00;33.33;;;;;9.31;69.59;101123.69;5012898;28;8843;-61
2021/03/30 00:34:12;;;;;;;;;48.67;39.67;;;;;9.34;69.88;101122.69;5015509;28;8848;-61
2021/03/30 00:36:39;;;;;;;;;44.00;37.33;;;;;9.28;71.87;101123.78;5017764;28;8839;-62
2021/03/30 00:39:06;;;;;;;;;44.33;35.00;;;;;9.30;70.50;101118.38;5013469;28;8879;-61
2021/03/30 00:41:42;;;;;;;;;35.00;29.00;;;;;9.11;74.69;101121.66;5017838;28;8843;-61
2021/03/30 00:44:13;;;;;;;;;45.33;40.33;;;;;9.31;74.73;101128.16;5014162;28;8870;-61
2021/03/30 00:46:44;;;;;;;;;59.33;44.00;;;;;9.12;76.27;101127.91;5019286;28;8827;-61
2021/03/30 00:49:14;;;;;;;;;52.67;43.33;;;;;9.12;76.76;101125.22;5020295;28;8859;-61
2021/03/30 00:51:43;;;;;;;;;53.67;41.00;;;;;9.22;78.50;101124.00;5015587;28;8839;-61
2021/03/30 00:54:10;;;;;;;;;48.33;41.33;;;;;9.04;78.81;101125.47;5013629;28;8839;-61
2021/03/30 00:56:37;;;;;;;;;51.00;41.00;;;;;9.09;77.85;101123.50;5016979;28;8841;-61
2021/03/30 00:59:06;;;;;;;;;52.33;39.67;;;;;8.99;79.99;101122.06;5024141;28;9603;-61
2021/03/30 01:01:32;;;;;;;;;49.00;40.33;;;;;8.90;80.26;101123.22;5013977;28;8843;-61
2021/03/30 01:04:00;;;;;;;;;46.33;40.33;;;;;8.99;81.89;101114.88;5020684;28;8886;-61
2021/03/30 01:06:27;;;;;;;;;50.67;40.33;;;;;9.07;80.93;101119.13;5021212;28;8874;-61
2021/03/30 01:09:25;;;;;;;;;51.00;42.00;;;;;9.10;81.03;101116.34;5021876;28;8833;-61
2021/03/30 01:12:04;;;;;;;;;57.33;43.00;;;;;9.07;81.50;101111.09;5026854;28;8846;-61
2021/03/30 01:15:14;;;;;;;;;55.33;43.67;;;;;9.11;81.51;101112.72;5027277;28;8828;-61
2021/03/30 01:17:49;;;;;;;;;61.67;47.00;;;;;9.10;82.31;101108.31;5016043;28;9603;-61
2021/03/30 01:20:59;;;;;;;;;53.33;44.33;;;;;9.26;79.64;101109.56;5017836;28;9571;-61
2021/03/30 01:23:50;;;;;;;;;53.33;41.67;;;;;9.55;77.79;101111.25;5015860;28;8879;-61
2021/03/30 01:26:25;;;;;;;;;57.00;44.00;;;;;9.49;77.79;101115.97;5021260;28;8875;-61
2021/03/30 01:29:09;;;;;;;;;63.33;50.33;;;;;9.47;77.49;101107.09;5019478;28;8846;-61
2021/03/30 01:31:41;;;;;;;;;74.67;54.00;;;;;9.45;77.23;101109.81;5014864;28;8878;-61
2021/03/30 01:34:12;;;;;;;;;68.33;51.33;;;;;9.44;77.61;101105.38;5027581;28;8856;-62
2021/03/30 01:36:43;;;;;;;;;75.00;49.00;;;;;9.39;77.85;101110.91;5018637;28;8823;-61
2021/03/30 01:39:15;;;;;;;;;64.67;48.67;;;;;9.53;77.82;101107.75;5012576;28;8866;-61
2021/03/30 01:41:46;;;;;;;;;58.00;47.00;;;;;9.42;78.55;101108.09;5013702;28;8829;-61
2021/03/30 01:44:16;;;;;;;;;56.67;41.00;;;;;9.38;79.05;101108.28;5028170;28;8865;-62
2021/03/30 01:46:45;;;;;;;;;57.00;41.67;;;;;9.51;76.54;101108.75;5024111;28;8853;-61
2021/03/30 01:49:18;;;;;;;;;65.00;45.67;;;;;9.16;80.53;101106.31;5022160;28;8847;-61
2021/03/30 01:51:46;;;;;;;;;48.33;38.67;;;;;8.94;84.34;101102.56;5022407;28;9508;-61
2021/03/30 01:54:16;;;;;;;;;34.00;29.67;;;;;8.96;85.08;101101.59;5022450;28;8828;-61
2021/03/30 01:56:43;;;;;;;;;44.33;35.67;;;;;8.66;86.46;101105.22;5025009;28;9524;-61
2021/03/30 01:59:15;;;;;;;;;41.67;31.33;;;;;8.74;86.70;101100.50;5024605;28;8835;-60
2021/03/30 02:01:46;;;;;;;;;31.00;28.33;;;;;9.05;84.97;101096.88;5017086;28;8835;-60
2021/03/30 02:04:14;;;;;;;;;40.33;32.33;;;;;9.20;83.93;101093.69;5016742;28;8878;-61
2021/03/30 02:06:46;;;;;;;;;53.33;37.33;;;;;9.09;83.94;101098.53;5005983;28;8847;-61
2021/03/30 02:09:20;;;;;;;;;42.33;33.00;;;;;8.76;86.00;101087.97;5029143;28;8855;-60
2021/03/30 02:11:55;;;;;;;;;42.00;34.33;;;;;8.99;84.52;101096.13;5026605;28;8854;-60
2021/03/30 02:14:23;;;;;;;;;47.67;38.00;;;;;9.16;83.34;101098.28;5021446;28;8877;-61
2021/03/30 02:17:03;;;;;;;;;34.00;31.00;;;;;9.12;83.62;101090.38;5025297;28;8839;-61
2021/03/30 02:20:20;;;;;;;;;38.00;31.33;;;;;8.83;83.43;101097.56;5015594;28;8869;-60
2021/03/30 02:22:55;;;;;;;;;41.00;35.33;;;;;9.02;82.77;101097.84;5016775;28;8819;-61
2021/03/30 02:25:24;;;;;;;;;44.00;33.67;;;;;8.76;85.01;101093.31;5026830;28;8856;-61
2021/03/30 02:27:55;;;;;;;;;47.67;38.00;;;;;8.63;85.59;101091.94;5022827;28;8831;-61
2021/03/30 02:30:26;;;;;;;;;46.33;37.67;;;;;8.61;86.43;101091.09;5022217;28;8850;-60
2021/03/30 02:32:55;;;;;;;;;47.67;38.67;;;;;8.64;85.40;101083.88;5025753;28;8863;-61
2021/03/30 02:35:24;;;;;;;;;55.33;39.67;;;;;9.17;84.24;101088.44;5018578;28;8823;-61
2021/03/30 02:37:53;;;;;;;;;43.33;33.67;;;;;8.80;83.94;101089.63;5021206;28;8842;-61
2021/03/30 02:40:22;;;;;;;;;30.00;27.33;;;;;8.57;85.22;101088.53;5028355;28;8836;-61
2021/03/30 02:42:51;;;;;;;;;28.33;23.33;;;;;8.82;83.35;101082.44;5023292;28;8852;-61
2021/03/30 02:45:23;;;;;;;;;26.33;22.33;;;;;8.63;85.00;101083.91;5021282;28;8851;-60
2021/03/30 02:48:06;;;;;;;;;40.67;30.67;;;;;8.55;84.47;101078.78;5019941;28;8851;-60
2021/03/30 02:50:35;;;;;;;;;36.67;32.67;;;;;8.37;85.00;101080.19;4998425;28;8847;-60
2021/03/30 02:53:04;;;;;;;;;36.33;29.67;;;;;8.60;86.17;101089.38;5028340;28;8900;-60
2021/03/30 02:55:34;;;;;;;;;38.33;33.33;;;;;8.75;85.30;101084.41;5015528;28;8819;-61
2021/03/30 02:58:04;;;;;;;;;44.00;33.33;;;;;8.71;85.08;101084.53;5022866;28;8835;-61
2021/03/30 03:00:32;;;;;;;;;37.33;32.00;;;;;8.80;85.86;101078.91;5035202;28;8869;-61
2021/03/30 03:03:05;;;;;;;;;41.67;31.33;;;;;8.63;86.76;101081.25;5029261;28;8843;-61
2021/03/30 03:05:31;;;;;;;;;48.00;35.33;;;;;8.81;85.81;101080.66;5029490;28;8836;-61
2021/03/30 03:07:59;;;;;;;;;40.00;32.67;;;;;8.82;85.41;101085.09;5023316;28;8831;-61
2021/03/30 03:10:26;;;;;;;;;34.67;33.00;;;;;8.60;84.87;101075.97;5021056;28;8951;-61
2021/03/30 03:12:55;;;;;;;;;31.00;27.33;;;;;8.65;83.92;101090.09;5029259;28;8909;-61
2021/03/30 03:15:23;;;;;;;;;38.00;30.00;;;;;8.74;84.57;101080.00;5026790;28;8852;-61
2021/03/30 03:17:52;;;;;;;;;43.33;34.33;;;;;8.65;84.47;101076.72;5031882;28;8829;-60
2021/03/30 03:20:20;;;;;;;;;36.33;33.00;;;;;8.57;85.33;101077.81;5034145;28;8824;-61
2021/03/30 03:22:47;;;;;;;;;38.33;32.00;;;;;8.68;85.83;101074.81;5031067;28;8817;-61
2021/03/30 03:25:15;;;;;;;;;42.00;35.00;;;;;8.65;84.83;101076.72;5033365;28;8824;-61
2021/03/30 03:27:42;;;;;;;;;40.00;34.33;;;;;8.76;85.59;101077.25;5033620;28;8859;-61
2021/03/30 03:30:11;;;;;;;;;45.67;40.67;;;;;8.80;83.02;101068.22;5030784;28;8819;-61
2021/03/30 03:32:41;;;;;;;;;48.00;38.33;;;;;8.80;83.55;101081.59;5015661;28;8876;-60
2021/03/30 03:35:14;;;;;;;;;44.67;38.00;;;;;8.91;84.78;101079.44;5015033;28;9288;-61
2021/03/30 03:37:45;;;;;;;;;52.67;40.00;;;;;8.78;85.11;101080.75;5017495;28;8954;-60
2021/03/30 03:40:15;;;;;;;;;44.67;38.00;;;;;8.70;85.51;101078.31;5028588;28;8857;-59
2021/03/30 03:42:42;;;;;;;;;51.00;41.33;;;;;8.70;85.94;101083.69;5014424;28;8853;-60
2021/03/30 03:45:12;;;;;;;;;59.33;42.67;;;;;8.74;86.89;101079.09;5014898;28;9590;-60
2021/03/30 03:47:39;;;;;;;;;48.33;36.33;;;;;8.70;87.33;101082.81;5032717;28;8866;-60
2021/03/30 03:50:07;;;;;;;;;52.00;39.00;;;;;8.73;88.14;101082.69;5028632;28;8873;-60
2021/03/30 03:52:43;;;;;;;;;45.00;39.00;;;;;8.68;88.36;101087.31;5014949;28;8875;-60
2021/03/30 03:55:12;;;;;;;;;47.00;38.67;;;;;8.69;87.47;101089.97;5030727;28;8837;-60
2021/03/30 03:57:50;;;;;;;;;47.33;40.00;;;;;8.59;87.61;101095.66;5033913;28;8863;-59
2021/03/30 04:00:20;;;;;;;;;59.33;46.00;;;;;8.65;86.31;101095.47;5034564;28;8836;-60
2021/03/30 04:02:57;;;;;;;;;64.25;47.00;;;;;8.61;86.96;101102.72;5029173;28;9684;-60
2021/03/30 04:05:36;;;;;;;;;67.67;47.00;;;;;8.83;87.76;101104.72;5017276;28;8839;-60
2021/03/30 04:08:12;;;;;;;;;62.33;48.00;;;;;8.40;88.55;101100.66;5034273;28;8878;-60
2021/03/30 04:10:44;;;;;;;;;48.00;42.00;;;;;8.36;88.13;101098.06;5032251;28;9579;-60
2021/03/30 04:13:11;;;;;;;;;51.00;41.00;;;;;8.60;87.60;101102.75;5033355;28;8828;-59
2021/03/30 04:15:39;;;;;;;;;51.00;41.00;;;;;8.34;90.54;101102.56;5016989;28;8852;-60
2021/03/30 04:18:07;;;;;;;;;57.67;40.67;;;;;8.27;91.70;101102.81;5034084;28;8848;-60
2021/03/30 04:20:34;;;;;;;;;34.67;31.00;;;;;8.27;91.76;101097.47;5020150;28;8882;-60
2021/03/30 04:23:02;;;;;;;;;67.67;46.00;;;;;8.34;91.58;101099.88;5014186;28;9573;-60
2021/03/30 04:25:28;;;;;;;;;57.00;45.00;;;;;8.28;90.76;101097.41;5014501;28;9493;-60
2021/03/30 04:27:56;;;;;;;;;57.00;44.67;;;;;8.40;90.22;101100.66;5014299;28;8851;-60
2021/03/30 04:30:26;;;;;;;;;54.00;42.67;;;;;8.32;91.38;101098.19;5013339;28;8854;-60
2021/03/30 04:32:53;;;;;;;;;54.75;43.00;;;;;8.24;92.53;101094.84;5014764;28;8819;-60
2021/03/30 04:35:20;;;;;;;;;62.25;46.00;;;;;8.33;91.87;101095.47;5014353;28;8831;-60
2021/03/30 04:37:47;;;;;;;;;66.00;51.50;;;;;8.24;92.51;101095.75;5014374;28;8839;-61
2021/03/30 04:40:15;;;;;;;;;60.50;45.50;;;;;7.95;93.09;101099.25;5013949;28;8835;-60
2021/03/30 04:42:42;;;;;;;;;55.00;42.25;;;;;7.90;93.54;101102.06;5014967;28;9546;-60
2021/03/30 04:45:10;;;;;;;;;52.50;42.75;;;;;8.03;93.40;101097.25;5014457;28;8851;-60
2021/03/30 04:47:37;;;;;;;;;55.00;44.50;;;;;8.16;93.40;101097.75;5033516;28;8836;-60
2021/03/30 04:50:07;;;;;;;;;51.50;41.75;;;;;8.32;92.78;101099.09;5033473;28;8922;-60
2021/03/30 04:52:36;;;;;;;;;54.25;42.50;;;;;8.35;91.91;101103.47;5028872;28;9551;-61
2021/03/30 04:55:05;;;;;;;;;53.00;43.50;;;;;8.08;90.60;101106.03;5013529;28;8920;-60
2021/03/30 04:57:32;;;;;;;;;48.00;41.00;;;;;8.31;91.47;101108.00;5015615;28;8821;-60
2021/03/30 04:59:59;;;;;;;;;56.67;43.33;;;;;8.87;88.80;101112.59;5024278;28;8840;-61
2021/03/30 05:02:26;;;;;;;;;57.33;45.67;;;;;8.56;88.63;101112.69;5016152;28;8867;-60
2021/03/30 05:04:53;;;;;;;;;52.00;44.00;;;;;8.53;90.10;101108.31;5029461;28;8852;-61
2021/03/30 05:07:20;;;;;;;;;62.25;45.75;;;;;8.42;91.65;101110.41;5033110;28;8828;-61
2021/03/30 05:09:46;;;;;;;;;63.00;45.25;;;;;8.34;92.79;101112.41;5020073;28;8837;-60
2021/03/30 05:12:13;;;;;;;;;57.00;42.33;;;;;8.48;92.48;101114.72;5032426;28;8832;-60
2021/03/30 05:14:40;;;;;;;;;59.67;42.00;;;;;8.42;91.88;101115.75;5024304;28;8870;-60
2021/03/30 05:17:07;;;;;;;;;59.67;42.00;;;;;8.54;91.62;101119.88;5013183;28;8838;-60
2021/03/30 05:19:34;;;;;;;;;48.33;41.67;;;;;8.58;91.38;101116.16;5013067;28;8863;-61
2021/03/30 05:22:00;;;;;;;;;47.00;41.67;;;;;8.51;91.61;101118.19;5030609;28;8828;-61
2021/03/30 05:24:27;;;;;;;;;62.50;47.00;;;;;8.43;89.89;101120.22;5032431;28;8853;-60
2021/03/30 05:26:54;;;;;;;;;69.50;51.75;;;;;8.74;88.63;101116.56;5032485;28;8856;-60
2021/03/30 05:29:21;;;;;;;;;59.50;45.00;;;;;9.06;86.30;101125.41;5014828;28;8843;-61
2021/03/30 05:31:48;;;;;;;;;56.33;44.33;;;;;9.11;85.98;101126.13;5021545;28;9689;-60
2021/03/30 05:34:15;;;;;;;;;54.00;42.00;;;;;9.19;86.40;101119.63;5032702;28;8825;-61
2021/03/30 05:36:42;;;;;;;;;55.33;40.33;;;;;9.15;82.99;101119.75;5032559;28;8837;-60
2021/03/30 05:39:08;;;;;;;;;56.67;41.33;;;;;9.14;84.18;101126.06;5032290;28;9614;-60
2021/03/30 05:41:39;;;;;;;;;56.33;41.00;;;;;9.23;84.32;101121.25;5032504;28;8832;-61
2021/03/30 05:44:08;;;;;;;;;43.00;31.33;;;;;9.32;80.30;101128.13;5032688;28;8876;-60
2021/03/30 05:46:38;;;;;;;;;48.67;38.67;;;;;9.37;79.77;101119.91;5032783;28;8829;-61
2021/03/30 05:49:05;;;;;;;;;46.00;40.00;;;;;9.25;77.90;101125.69;5013616;28;8831;-61
2021/03/30 05:51:39;;;;;;;;;51.67;40.00;;;;;9.11;80.70;101113.63;5023798;28;8848;-61
2021/03/30 05:54:07;;;;;;;;;53.00;38.67;;;;;9.14;78.89;101118.00;5032101;28;8836;-61
2021/03/30 05:56:37;;;;;;;;;43.00;38.33;;;;;9.09;79.12;101136.03;5031881;28;8852;-60
2021/03/30 05:59:06;;;;;;;;;48.00;37.00;;;;;9.16;78.32;101125.06;5020008;28;8839;-61
2021/03/30 06:01:34;;;;;;;;;47.33;38.00;;;;;9.25;78.01;101128.38;5021969;28;8851;-61
2021/03/30 06:04:02;;;;;;;;;39.33;35.00;;;;;9.30;76.19;101121.06;5031149;28;8879;-61
2021/03/30 06:06:29;;;;;;;;;41.67;35.00;;;;;9.21;75.76;101127.59;5032006;28;8899;-60
2021/03/30 06:08:56;;;;;;;;;30.00;27.67;;;;;9.31;76.41;101126.34;5031341;28;8824;-60
2021/03/30 06:11:23;;;;;;;;;40.00;33.00;;;;;9.24;76.47;101132.84;5031868;28;8855;-60
2021/03/30 06:13:58;;;;;;;;;45.00;38.00;;;;;9.21;77.27;101138.31;5029735;28;8850;-60
2021/03/30 06:16:38;;;;;;;;;62.75;49.00;;;;;9.35;78.36;101135.19;5017295;28;8858;-60
2021/03/30 06:19:19;;;;;;;;;51.67;39.33;;;;;9.43;77.29;101131.31;5024547;28;8860;-61
2021/03/30 06:22:00;;;;;;;;;48.00;39.33;;;;;9.30;78.38;101138.03;5032347;28;8926;-61
2021/03/30 06:24:32;;;;;;;;;46.33;36.33;;;;;9.45;77.59;101144.66;5031504;28;8860;-61
2021/03/30 06:27:05;;;;;;;;;21.00;6.00;;;;;9.62;78.52;101138.75;5028327;28;8828;-60
2021/03/30 06:29:36;;;;;;;;;68.67;50.00;;;;;9.69;79.17;101134.94;5015727;28;8897;-61
2021/03/30 06:32:08;;;;;;;;;65.33;44.33;;;;;10.03;78.43;101139.06;5017085;28;8866;-61
2021/03/30 06:34:39;;;;;;;;;54.67;39.33;;;;;10.01;76.96;101139.16;5030070;28;8832;-61
2021/03/30 06:37:31;;;;;;;;;46.33;37.33;;;;;9.97;77.27;101144.66;5020994;28;8835;-61
2021/03/30 06:40:30;;;;;;;;;43.33;36.33;;;;;10.11;75.38;101153.13;5021717;28;8824;-61
2021/03/30 06:43:00;;;;;;;;;60.33;49.67;;;;;10.23;76.13;101149.09;5036161;28;8833;-61
2021/03/30 06:45:30;;;;;;;;;45.67;37.33;;;;;10.16;74.75;101155.63;5024531;28;8861;-61
2021/03/30 06:48:00;;;;;;;;;36.00;32.00;;;;;9.96;74.17;101146.47;5034241;28;8820;-61
2021/03/30 06:50:34;;;;;;;;;45.33;37.00;;;;;10.21;74.27;101149.13;5032569;28;8971;-61
2021/03/30 06:53:17;;;;;;;;;41.00;31.33;;;;;10.15;72.86;101149.38;5034917;28;8918;-61
2021/03/30 06:55:53;;;;;;;;;57.67;41.67;;;;;10.47;71.98;101156.28;5032605;28;8850;-61
2021/03/30 06:58:23;;;;;;;;;44.33;38.00;;;;;10.29;71.99;101156.94;5028974;28;8853;-61
2021/03/30 07:00:50;;;;;;;;;48.33;40.00;;;;;10.53;71.53;101166.81;5035514;28;8852;-61
2021/03/30 07:03:22;;;;;;;;;48.00;39.33;;;;;10.58;71.62;101157.69;5034479;28;8832;-61
2021/03/30 07:05:55;;;;;;;;;42.00;36.33;;;;;10.53;69.98;101168.59;5034090;28;8855;-61
2021/03/30 07:08:23;;;;;;;;;38.00;33.33;;;;;10.80;70.65;101180.09;5035406;28;8849;-61
2021/03/30 07:10:55;;;;;;;;;43.67;38.67;;;;;11.01;69.21;101183.78;5035049;28;8856;-61
2021/03/30 07:13:24;;;;;;;;;38.00;34.00;;;;;11.19;67.35;101182.19;5034978;28;8942;-61
2021/03/30 07:16:00;;;;;;;;;40.33;30.00;;;;;11.30;69.18;101173.66;5017107;28;8839;-61
2021/03/30 07:18:46;;;;;;;;;33.67;29.67;;;;;11.55;65.42;101169.00;5015331;28;8892;-61
2021/03/30 07:21:43;;;;;;;;;31.33;26.00;;;;;11.45;65.93;101167.63;5015286;28;8838;-61
2021/03/30 07:24:13;;;;;;;;;29.00;24.33;;;;;11.82;66.10;101171.47;5046253;28;11580;-61
2021/03/30 07:26:49;;;;;;;;;28.67;26.00;;;;;11.82;65.58;101168.78;5014045;28;11564;-61
2021/03/30 07:29:23;;;;;;;;;28.67;22.33;;;;;11.71;66.73;101176.44;5014511;28;11560;-61
2021/03/30 07:32:10;;;;;;;;;27.00;25.00;;;;;11.89;65.78;101173.00;5014418;28;11564;-61
2021/03/30 07:34:57;;;;;;;;;21.33;16.67;;;;;12.00;64.57;101175.22;5015072;28;11573;-61
2021/03/30 07:38:00;;;;;;;;;24.67;22.67;;;;;11.79;64.86;101163.53;5019001;28;11536;-61
2021/03/30 07:40:27;;;;;;;;;28.67;21.00;;;;;12.19;63.70;101172.59;5034509;28;11561;-61
2021/03/30 07:42:56;;;;;;;;;27.50;24.25;;;;;12.12;64.74;101173.81;5034846;28;11542;-62
2021/03/30 07:45:28;;;;;;;;;21.75;21.75;;;;;12.46;65.09;101167.78;5025043;28;11575;-61
2021/03/30 07:47:57;;;;;;;;;29.67;27.00;;;;;12.48;64.14;101166.78;5015112;28;12316;-61
2021/03/30 07:51:04;;;;;;;;;23.50;21.75;;;;;13.13;61.09;101163.72;5015875;28;11576;-62
2021/03/30 07:53:54;;;;;;;;;24.75;22.25;;;;;12.97;62.82;101169.00;5015248;28;11661;-61
2021/03/30 07:56:24;;;;;;;;;28.75;23.75;;;;;12.49;63.89;101163.13;5014437;28;11573;-61
2021/03/30 07:58:54;;;;;;;;;22.75;22.75;;;;;13.08;62.97;101163.09;5029587;28;11561;-61
2021/03/30 08:01:28;;;;;;;;;28.50;23.00;;;;;13.21;61.71;101164.22;5026809;28;11642;-61
2021/03/30 08:03:57;;;;;;;;;24.00;22.25;;;;;13.64;60.31;101170.25;5018442;28;11661;-61
2021/03/30 08:06:49;;;;;;;;;27.25;20.75;;;;;13.23;61.27;101158.78;5022810;28;11585;-62
2021/03/30 08:09:19;;;;;;;;;25.25;23.50;;;;;13.94;59.32;101167.78;5015276;28;11582;-61
2021/03/30 08:11:54;;;;;;;;;28.50;21.75;;;;;14.14;59.20;101168.56;5014037;28;11596;-62
2021/03/30 08:14:26;;;;;;;;;28.25;25.00;;;;;14.60;58.08;101176.97;5014294;28;11662;-62
2021/03/30 08:17:08;;;;;;;;;27.50;24.00;;;;;13.82;60.17;101174.72;5027233;28;11609;-62
2021/03/30 08:19:35;;;;;;;;;28.50;25.75;;;;;13.36;60.39;101165.34;5033675;28;11561;-62
2021/03/30 08:22:08;;;;;;;;;27.00;24.00;;;;;13.89;59.64;101175.25;5028690;28;11601;-62
2021/03/30 08:24:46;;;;;;;;;26.75;22.50;;;;;13.88;59.09;101178.91;5013962;28;11685;-61
2021/03/30 08:27:32;;;;;;;;;25.75;22.00;;;;;13.94;58.41;101183.13;5014897;28;11653;-62
2021/03/30 08:30:16;;;;;;;;;25.50;23.50;;;;;14.06;58.14;101187.91;5014001;28;11550;-62
2021/03/30 08:32:48;;;;;;;;;22.50;19.25;;;;;13.69;60.01;101189.78;5013202;28;11572;-61
2021/03/30 08:35:31;;;;;;;;;24.50;18.75;;;;;13.52;61.69;101185.22;5014004;28;11651;-61
2021/03/30 08:38:02;;;;;;;;;25.00;21.75;;;;;14.01;60.64;101196.22;5013268;28;11687;-62
2021/03/30 08:40:35;;;;;;;;;30.25;21.00;;;;;14.02;59.25;101197.97;5018913;28;11636;-61
2021/03/30 08:43:16;;;;;;;;;23.25;20.75;;;;;13.82;59.85;101190.91;5013753;28;11662;-61
2021/03/30 08:46:04;;;;;;;;;25.25;19.00;;;;;13.71;60.31;101187.84;5013861;28;11577;-62
2021/03/30 08:48:48;;;;;;;;;20.25;18.75;;;;;14.21;58.15;101187.06;5019608;28;12304;-61
2021/03/30 08:51:20;;;;;;;;;23.00;21.00;;;;;13.98;60.17;101190.09;5032112;28;11573;-62
2021/03/30 08:53:48;;;;;;;;;26.00;24.75;;;;;13.62;59.39;101188.34;5032311;28;11596;-62
2021/03/30 08:56:26;;;;;;;;;30.50;22.00;;;;;13.81;59.11;101191.84;5032627;28;11555;-62
2021/03/30 08:58:57;;;;;;;;;28.75;24.00;;;;;14.07;59.73;101189.63;5015515;28;11656;-61
2021/03/30 09:01:25;;;;;;;;;24.75;20.75;;;;;14.69;58.27;101188.16;5012683;28;11623;-62
2021/03/30 09:03:53;;;;;;;;;23.00;21.75;;;;;13.81;59.90;101190.97;5010701;28;11570;-61
2021/03/30 09:06:36;;;;;;;;;26.75;21.25;;;;;13.72;61.39;101188.75;5013211;28;11687;-61
2021/03/30 09:09:27;;;;;;;;;31.50;29.00;;;;;14.05;58.91;101184.31;5029237;28;11554;-61
2021/03/30 09:11:54;;;;;;;;;32.75;26.75;;;;;14.09;59.45;101192.28;5031999;28;11557;-62
2021/03/30 09:14:23;;;;;;;;;28.00;28.00;;;;;14.02;59.16;101187.16;5027508;28;11568;-61
2021/03/30 09:16:51;;;;;;;;;31.75;28.25;;;;;14.34;58.88;101181.03;5013624;28;11607;-61
2021/03/30 09:19:31;;;;;;;;;32.75;26.50;;;;;14.55;58.46;101181.75;5013158;28;11574;-61
2021/03/30 09:22:05;;;;;;;;;55.67;45.33;;;;;13.92;59.01;101185.88;5013184;28;11644;-62
2021/03/30 09:27:03;;;;;;;;;30.00;23.00;;;;;15.27;57.35;101183.13;5031499;28;11594;-59
2021/03/30 09:29:36;;;;;;;;;25.00;23.25;;;;;15.22;56.86;101182.50;5032009;28;11561;-58
2021/03/30 09:32:07;;;;;;;;;29.25;25.25;;;;;15.69;57.43;101178.91;5032366;28;11591;-58
2021/03/30 09:34:39;;;;;;;;;30.00;23.75;;;;;15.61;55.77;101183.88;5032499;28;11554;-60
2021/03/30 09:37:05;;;;;;;;;29.25;24.25;;;;;15.49;56.15;101178.22;5032341;28;11560;-59
2021/03/30 09:39:36;;;;;;;;;26.00;23.25;;;;;15.84;56.53;101185.28;5031843;28;11648;-59
2021/03/30 09:42:05;;;;;;;;;23.50;21.25;;;;;15.82;54.61;101179.06;5032586;28;11665;-59
2021/03/30 09:44:43;;;;;;;;;24.25;23.75;;;;;14.28;57.38;101187.63;5032674;28;11698;-58
2021/03/30 09:47:15;;;;;;;;;31.25;24.75;;;;;15.62;55.62;101189.22;5031374;28;11631;-58
2021/03/30 09:49:46;;;;;;;;;28.50;27.00;;;;;15.30;55.37;101191.09;5020137;28;11583;-59
2021/03/30 09:52:15;;;;;;;;;28.50;22.75;;;;;15.62;55.75;101188.34;5012232;28;11744;-59
2021/03/30 09:54:43;;;;;;;;;25.75;22.00;;;;;16.29;54.91;101195.16;5022886;28;11539;-59
2021/03/30 09:57:29;;;;;;;;;26.50;23.75;;;;;15.85;54.91;101198.75;5032534;28;11549;-59
2021/03/30 09:59:57;;;;;;;;;30.75;25.50;;;;;16.07;54.64;101195.59;5031916;28;11540;-59
2021/03/30 10:02:31;;;;;;;;;26.50;24.00;;;;;16.53;54.97;101189.19;5032311;28;11551;-59
2021/03/30 10:05:00;;;;;;;;;28.25;25.25;;;;;16.34;52.15;101179.47;5035960;28;11582;-59
2021/03/30 10:07:36;;;;;;;;;28.00;22.25;;;;;16.97;53.57;101180.13;5036493;28;11558;-59
2021/03/30 10:10:13;;;;;;;;;13.50;12.75;;;;;16.82;51.31;101179.25;5012659;28;11568;-59
2021/03/30 10:12:59;;;;;;;;;17.75;16.75;;;;;16.41;52.77;101189.00;5016742;28;11602;-59
2021/03/30 10:15:41;;;;;;;;;22.50;17.00;;;;;16.22;52.69;101172.13;5031686;28;12399;-59
2021/03/30 10:18:10;;;;;;;;;21.75;20.50;;;;;16.52;53.47;101173.91;5035867;28;11553;-59
2021/03/30 10:20:45;;;;;;;;;22.75;19.75;;;;;16.38;54.47;101170.22;5035691;28;11691;-60
2021/03/30 10:23:22;;;;;;;;;21.00;20.50;;;;;15.82;54.12;101168.22;5030461;28;11673;-58
2021/03/30 10:25:51;;;;;;;;;14.00;13.00;;;;;14.99;55.31;101159.50;5031721;28;11699;-57
2021/03/30 10:28:32;;;;;;;;;14.00;14.00;;;;;15.68;54.91;101158.19;5029161;28;11577;-58
2021/03/30 10:31:12;;;;;;;;;18.75;15.00;;;;;16.37;52.60;101163.03;5015965;28;11571;-59
2021/03/30 10:33:43;;;;;;;;;15.25;14.75;;;;;16.47;52.91;101155.19;5016375;28;11537;-59
2021/03/30 10:36:15;;;;;;;;;17.75;15.00;;;;;17.04;51.36;101152.47;5015906;28;11628;-59
2021/03/30 10:39:10;;;;;;;;;12.50;9.75;;;;;16.16;52.26;101148.97;5016313;28;11601;-59
2021/03/30 10:41:43;;;;;;;;;17.25;15.75;;;;;16.78;51.76;101148.75;5015906;28;11604;-60
2021/03/30 10:44:17;;;;;;;;;18.50;17.00;;;;;16.38;52.45;101148.53;5015170;28;11567;-59
2021/03/30 10:46:47;;;;;;;;;19.00;15.50;;;;;16.82;51.37;101155.69;5015564;28;11573;-59
2021/03/30 10:49:15;;;;;;;;;28.75;26.25;;;;;16.68;51.90;101142.13;5015885;28;11677;-59
2021/03/30 10:51:46;;;;;;;;;21.00;15.25;;;;;17.01;50.38;101139.13;5015734;28;11618;-59
2021/03/30 10:54:15;;;;;;;;;51.00;39.75;;;;;16.77;51.07;101140.66;5015886;28;11511;-59
2021/03/30 10:56:42;;;;;;;;;18.75;15.00;;;;;17.32;50.85;101137.97;5015942;28;11624;-59
2021/03/30 10:59:15;;;;;;;;;15.00;13.25;;;;;16.98;51.07;101139.31;5015426;28;12427;-59
2021/03/30 11:01:42;;;;;;;;;14.25;12.75;;;;;16.75;50.17;101143.50;5015282;28;11529;-59
2021/03/30 11:04:10;;;;;;;;;13.50;12.25;;;;;16.60;50.86;101139.03;5015506;28;11587;-59
2021/03/30 11:06:37;;;;;;;;;18.75;15.75;;;;;16.88;50.54;101139.03;5019952;28;11521;-59
2021/03/30 11:09:05;;;;;;;;;15.25;13.00;;;;;16.46;50.63;101142.63;5029909;28;11481;-59
2021/03/30 11:11:32;;;;;;;;;16.75;15.50;;;;;16.59;52.28;101142.72;5031578;28;11474;-59
2021/03/30 11:13:59;;;;;;;;;10.25;10.25;;;;;17.30;51.12;101134.47;5029450;28;11494;-59
2021/03/30 11:16:28;;;;;;;;;19.75;12.25;;;;;17.40;50.57;101128.44;5022945;28;11483;-59
2021/03/30 11:18:56;;;;;;;;;14.50;14.00;;;;;17.23;49.11;101122.28;5015048;28;11499;-60
2021/03/30 11:21:23;;;;;;;;;11.75;10.25;;;;;17.43;49.69;101136.34;5015422;28;11512;-59
2021/03/30 11:23:58;;;;;;;;;11.00;10.25;;;;;16.64;49.47;101124.28;5022153;28;11459;-59
2021/03/30 11:26:25;;;;;;;;;10.25;10.25;;;;;17.02;49.41;101124.56;5034242;28;11479;-59
2021/03/30 11:28:53;;;;;;;;;9.50;9.50;;;;;17.22;48.76;101128.69;5034158;28;11618;-59
2021/03/30 11:39:36;;;;;;;;;12.50;9.50;;;;;16.86;49.65;101127.41;5030106;28;11227;-60
2021/03/30 11:42:04;;;;;;;;;7.00;7.00;;;;;17.91;47.40;101123.19;5018477;28;11515;-60
2021/03/30 11:44:31;;;;;;;;;8.00;8.00;;;;;17.82;47.16;101123.81;5015366;28;11597;-59
2021/03/30 11:46:59;;;;;;;;;9.00;8.00;;;;;17.67;46.96;101120.28;5020605;28;11502;-59
2021/03/30 11:49:28;;;;;;;;;4.00;4.00;;;;;16.67;48.37;101118.69;5034756;28;11446;-59
2021/03/30 11:51:56;;;;;;;;;6.75;6.50;;;;;16.72;49.90;101110.25;5020668;28;11440;-59
2021/03/30 11:54:24;;;;;;;;;10.75;9.50;;;;;17.70;48.97;101110.06;5014801;28;11589;-59